TimeCST,TemperatureF,Dew PointF,Humidity,Sea Level PressureIn,VisibilityMPH,Wind Direction,Wind SpeedMPH,Gust SpeedMPH,PrecipitationIn,Events,Conditions,WindDirDegrees,DateUTC
12:53 AM,21.0,10.0,63,30.23,10.0,West,6.9,-,N/A,,Clear,260,2014-01-07 06:53:00
1:53 AM,21.0,10.9,65,30.19,10.0,WSW,9.2,-,N/A,,Clear,250,2014-01-07 07:53:00
2:53 AM,21.9,10.9,63,30.17,10.0,West,10.4,-,N/A,,Clear,260,2014-01-07 08:53:00
3:53 AM,21.9,10.0,60,30.15,10.0,WSW,8.1,-,N/A,,Clear,250,2014-01-07 09:53:00
4:53 AM,21.9,10.0,60,30.14,10.0,WSW,10.4,-,N/A,,Clear,240,2014-01-07 10:53:00
5:53 AM,19.9,10.9,68,30.14,10.0,West,5.8,-,N/A,,Clear,260,2014-01-07 11:53:00
6:53 AM,19.9,10.9,68,30.14,10.0,West,6.9,-,N/A,,Clear,270,2014-01-07 12:53:00
7:53 AM,19.9,10.9,68,30.17,10.0,West,5.8,-,N/A,,Clear,280,2014-01-07 13:53:00
8:53 AM,23.0,12.0,63,30.16,10.0,WSW,6.9,-,N/A,,Clear,250,2014-01-07 14:53:00
9:53 AM,28.9,15.1,56,30.15,10.0,SW,5.8,-,N/A,,Clear,230,2014-01-07 15:53:00
10:53 AM,39.0,18.0,43,30.14,10.0,West,9.2,-,N/A,,Clear,270,2014-01-07 16:53:00
11:53 AM,48.9,15.1,26,30.10,10.0,NW,9.2,-,N/A,,Clear,310,2014-01-07 17:53:00
12:53 PM,53.1,14.0,21,30.04,10.0,NNW,9.2,-,N/A,,Clear,340,2014-01-07 18:53:00
1:53 PM,53.1,12.0,20,30.03,10.0,NNW,4.6,-,N/A,,Clear,340,2014-01-07 19:53:00
2:53 PM,53.1,10.9,19,30.02,10.0,Calm,Calm,-,N/A,,Clear,0,2014-01-07 20:53:00
3:53 PM,51.1,12.9,22,30.02,10.0,East,6.9,-,N/A,,Clear,90,2014-01-07 21:53:00
4:53 PM,45.0,16.0,31,30.05,10.0,East,8.1,-,N/A,,Clear,80,2014-01-07 22:53:00
5:53 PM,37.9,16.0,41,30.06,10.0,East,6.9,-,N/A,,Clear,90,2014-01-07 23:53:00
6:53 PM,37.0,16.0,42,30.07,10.0,ENE,6.9,-,N/A,,Clear,70,2014-01-08 00:53:00
7:53 PM,36.0,17.1,46,30.08,10.0,East,6.9,-,N/A,,Clear,80,2014-01-08 01:53:00
8:53 PM,34.0,19.0,54,30.10,10.0,NE,5.8,-,N/A,,Clear,40,2014-01-08 02:53:00
9:53 PM,32.0,19.9,61,30.10,10.0,ENE,6.9,-,N/A,,Partly Cloudy,60,2014-01-08 03:53:00
10:53 PM,32.0,21.0,64,30.08,10.0,ENE,10.4,-,N/A,,Partly Cloudy,60,2014-01-08 04:53:00
11:53 PM,28.0,19.0,69,30.09,10.0,NE,8.1,-,N/A,,Clear,50,2014-01-08 05:53:00